createdAt,value
2022-07-29T00:00:21.367Z,0.88
2022-07-29T00:10:22.585Z,0.93
2022-07-29T00:20:23.908Z,1.17
2022-07-29T00:30:25.137Z,0.73
2022-07-29T00:40:26.498Z,0.90
2022-07-29T00:50:27.889Z,1.17
2022-07-29T01:00:29.435Z,1.10
2022-07-29T01:10:30.721Z,0.80
2022-07-29T01:20:40.950Z,0.93
2022-07-29T01:30:42.280Z,1.55
2022-07-29T01:40:46.768Z,1.00
2022-07-29T01:51:05.577Z,0.98
2022-07-29T02:01:07.598Z,1.02
2022-07-29T02:11:08.816Z,0.98
2022-07-29T02:21:15.153Z,0.70
2022-07-29T02:31:17.454Z,1.10
2022-07-29T02:41:25.356Z,0.95
2022-07-29T02:51:43.554Z,0.80
2022-07-29T03:01:45.968Z,1.25
2022-07-29T03:11:50.387Z,1.13
2022-07-29T03:21:52.152Z,0.95
2022-07-29T03:31:53.502Z,0.80
2022-07-29T03:41:55.858Z,1.20
2022-07-29T03:51:57.103Z,1.10
2022-07-29T04:01:58.852Z,1.27
2022-07-29T04:12:03.185Z,1.17
2022-07-29T04:22:05.383Z,1.23
2022-07-29T04:32:06.699Z,1.15
2022-07-29T04:42:07.925Z,1.50
2022-07-29T04:52:09.762Z,1.80
2022-07-29T05:02:11.551Z,1.52
2022-07-29T05:12:12.877Z,1.42
2022-07-29T05:22:14.135Z,1.27
2022-07-29T05:32:15.374Z,1.23
2022-07-29T05:42:16.610Z,1.30
2022-07-29T05:52:17.804Z,1.67
2022-07-29T06:02:19.242Z,1.40
2022-07-29T06:12:20.701Z,1.50
2022-07-29T06:22:21.980Z,1.27
2022-07-29T06:32:23.227Z,1.48
2022-07-29T06:42:28.844Z,1.50
2022-07-29T06:52:30.311Z,1.30
2022-07-29T07:02:32.985Z,1.23
2022-07-29T07:12:34.553Z,1.30
2022-07-29T07:22:38.958Z,1.35
2022-07-29T07:32:40.371Z,1.00
2022-07-29T07:42:41.717Z,1.23
2022-07-29T07:52:51.222Z,1.30
2022-07-29T08:02:52.536Z,1.48
2022-07-29T08:12:53.848Z,1.17
2022-07-29T08:22:55.255Z,1.63
2022-07-29T08:32:56.576Z,1.60
2022-07-29T08:42:57.926Z,1.27
2022-07-29T08:53:00.088Z,1.20
2022-07-29T09:03:01.768Z,1.23
2022-07-29T09:13:03.048Z,1.05
2022-07-29T09:23:08.283Z,1.13
2022-07-29T09:33:09.564Z,1.27
2022-07-29T09:43:11.674Z,1.00
2022-07-29T09:53:12.974Z,1.15
2022-07-29T10:03:14.741Z,1.42
2022-07-29T10:13:16.687Z,1.05
2022-07-29T10:23:18.022Z,0.85
2022-07-29T10:33:22.327Z,1.02
2022-07-29T10:43:25.132Z,0.77
2022-07-29T10:53:46.604Z,1.90
2022-07-29T11:14:11.016Z,1.42
2022-07-29T11:24:14.717Z,1.55
2022-07-29T11:34:27.813Z,1.57
2022-07-29T11:44:53.835Z,1.40
2022-07-29T11:54:58.095Z,1.45
2022-07-29T12:05:01.838Z,1.10
2022-07-29T12:15:16.140Z,1.40
2022-07-29T12:25:34.847Z,0.90
2022-07-29T12:35:36.196Z,1.25
2022-07-29T12:45:45.447Z,1.20
2022-07-29T12:55:52.199Z,1.35
2022-07-29T13:05:53.461Z,0.90
2022-07-29T13:16:08.364Z,1.20
2022-07-29T13:26:10.172Z,0.85
2022-07-29T13:36:11.422Z,1.20
2022-07-29T13:46:12.952Z,1.23
2022-07-29T13:56:14.287Z,1.00
2022-07-29T14:06:15.523Z,0.90
2022-07-29T14:16:19.606Z,1.45
2022-07-29T14:26:21.586Z,1.20
2022-07-29T14:36:25.428Z,1.50
2022-07-29T14:46:27.060Z,1.13
2022-07-29T14:56:46.297Z,1.52
2022-07-29T15:06:48.743Z,1.30
2022-07-29T15:16:50.178Z,1.48
2022-07-29T15:26:54.028Z,1.10
2022-07-29T15:36:55.216Z,1.58
2022-07-29T15:47:08.740Z,1.70
2022-07-29T15:57:10.112Z,1.05
2022-07-29T16:07:11.510Z,1.67
2022-07-29T16:17:14.596Z,1.58
2022-07-29T16:27:16.421Z,1.50
2022-07-29T16:37:17.765Z,1.85
2022-07-29T16:47:19.086Z,0.93
2022-07-29T16:57:22.343Z,1.60
2022-07-29T17:07:23.637Z,1.92
2022-07-29T17:17:38.413Z,1.25
2022-07-29T17:27:42.371Z,1.10
2022-07-29T17:37:43.576Z,1.38
2022-07-29T17:47:45.275Z,1.63
2022-07-29T17:57:46.542Z,1.20
2022-07-29T18:07:51.200Z,2.28
2022-07-29T18:17:57.559Z,1.40
2022-07-29T18:28:00.689Z,1.37
2022-07-29T18:38:03.078Z,1.45
2022-07-29T18:48:05.503Z,1.70
2022-07-29T18:58:07.180Z,1.80
2022-07-29T19:08:08.402Z,2.00
2022-07-29T19:18:09.721Z,1.63
2022-07-29T19:28:10.946Z,1.73
2022-07-29T19:38:12.421Z,1.88
2022-07-29T19:48:13.672Z,2.10
2022-07-29T19:58:14.980Z,2.67
2022-07-29T20:08:17.117Z,2.08
2022-07-29T20:18:18.349Z,1.75
2022-07-29T20:28:20.750Z,2.08
2022-07-29T20:38:21.972Z,1.85
2022-07-29T20:48:23.198Z,1.98
2022-07-29T20:58:24.433Z,2.25
2022-07-29T21:08:26.035Z,1.65
2022-07-29T21:18:27.987Z,2.13
2022-07-29T21:28:30.817Z,2.20
2022-07-29T21:38:32.227Z,2.10
2022-07-29T21:48:33.681Z,1.63
2022-07-29T21:58:34.936Z,2.13
2022-07-29T22:08:36.145Z,1.60
2022-07-29T22:18:37.390Z,1.85
2022-07-29T22:28:38.667Z,1.90
2022-07-29T22:38:41.997Z,2.67
2022-07-29T22:48:43.404Z,2.58
2022-07-29T22:58:44.725Z,2.25
2022-07-29T23:08:46.397Z,2.20
2022-07-29T23:18:47.713Z,2.88
2022-07-29T23:28:48.985Z,2.20
2022-07-29T23:38:50.395Z,1.92
2022-07-29T23:48:51.744Z,2.17
2022-07-29T23:58:54.300Z,2.08
